Vineland Cherry Ave.

*Note: All times are displayed in the local standard time of the station location.
**Rain - Equipment is designed to accurately record liquid precipitation; under conditions when precipitation is not in liquid form, the data displayed may not properly reflect rainfall values.

Date Max Temp
(°C)
Min Temp
(°C)
Avg Temp
(°C)
Rain (mm) Avg RH (%) Solar Rad (kJ/m2)
Sat, Feb 17, 2018 -0.8 -6.0 -2.8 0.0 70.0 3193.2
Fri, Feb 16, 2018 4.3 -6.3 -0.1 0.0 77.2 5856.5
Thu, Feb 15, 2018 9.4 3.4 6.3 0.2 94.5 4281.0
Wed, Feb 14, 2018 5.4 -5.0 2.7 7.8 73.6 7919.3
Tue, Feb 13, 2018 -1.4 -16.3 -7.2 0.2 75.6 6444.5
Mon, Feb 12, 2018 -2.0 -10.5 -5.2 0.0 70.5 6974.5
Sun, Feb 11, 2018 1.0 -3.6 -1.7 6.0 90.1 2740.2
DateTime Avg Temp (°C) Rain (mm) RH (%) Solar Rad (kJ/m2)
Sun, Feb 18, 2018 04:00 -2.2 0.0 86.5 0.0
Sun, Feb 18, 2018 03:00 -1.9 0.0 84.0 0.0
Sun, Feb 18, 2018 02:00 -1.5 0.0 83.0 0.0
Sun, Feb 18, 2018 01:00 -1.5 0.0 84.5 0.0
Sun, Feb 18, 2018 00:00 -1.3 0.0 82.5 0.0
Sat, Feb 17, 2018 23:00 -1.2 0.0 78.0 0.0
Sat, Feb 17, 2018 22:00 -1.2 0.0 71.3 0.0
Sat, Feb 17, 2018 21:00 -1.4 0.0 71.0 0.0
Sat, Feb 17, 2018 20:00 -1.6 0.0 69.8 0.0
Sat, Feb 17, 2018 19:00 -1.6 0.0 64.3 0.0
Sat, Feb 17, 2018 18:00 -1.3 0.0 59.5 26.1
Sat, Feb 17, 2018 17:00 -1.1 0.0 59.3 82.2
Sat, Feb 17, 2018 16:00 -1.0 0.0 60.0 141.0
Sat, Feb 17, 2018 15:00 -0.9 0.0 59.8 284.9
Sat, Feb 17, 2018 14:00 -0.8 0.0 60.3 425.3
Sat, Feb 17, 2018 13:00 -0.9 0.0 61.0 466.8
Sat, Feb 17, 2018 12:00 -0.9 0.0 60.5 535.7
Sat, Feb 17, 2018 11:00 -1.4 0.0 63.0 528.4
Sat, Feb 17, 2018 10:00 -2.3 0.0 68.0 382.1
Sat, Feb 17, 2018 09:00 -3.8 0.0 73.8 269.0
Sat, Feb 17, 2018 08:00 -5.6 0.0 79.0 51.7
Sat, Feb 17, 2018 07:00 -6.0 0.0 81.0 0.0
Sat, Feb 17, 2018 06:00 -5.7 0.0 80.8 0.0
Sat, Feb 17, 2018 05:00 -5.5 0.0 79.5 0.0
Sat, Feb 17, 2018 04:00 -5.3 0.0 79.3 0.0
Sat, Feb 17, 2018 03:00 -5.3 0.0 75.5 0.0
Sat, Feb 17, 2018 02:00 -5.3 0.0 71.5 0.0
Sat, Feb 17, 2018 01:00 -5.7 0.0 72.5 0.0
Sat, Feb 17, 2018 00:00 -5.8 0.0 74.5 0.0
Fri, Feb 16, 2018 23:00 -5.8 0.0 73.8 0.0
Fri, Feb 16, 2018 22:00 -6.0 0.0 72.0 0.0
Fri, Feb 16, 2018 21:00 -4.8 0.0 68.5 0.0
Fri, Feb 16, 2018 20:00 -4.0 0.0 63.8 0.0
Fri, Feb 16, 2018 19:00 -3.4 0.0 59.3 0.0
Fri, Feb 16, 2018 18:00 -2.7 0.0 56.0 74.2
Fri, Feb 16, 2018 17:00 -1.2 0.0 57.3 412.1
Fri, Feb 16, 2018 16:00 0.4 0.0 57.5 835.6
Fri, Feb 16, 2018 15:00 1.1 0.0 57.5 1020.8
Fri, Feb 16, 2018 14:00 1.5 0.0 60.8 1184.4
Fri, Feb 16, 2018 13:00 1.8 0.0 64.3 1033.0
Fri, Feb 16, 2018 12:00 2.1 0.0 72.0 828.6
Fri, Feb 16, 2018 11:00 1.6 0.0 84.8 194.8
Fri, Feb 16, 2018 10:00 1.6 0.0 84.3 210.0
Fri, Feb 16, 2018 09:00 1.3 0.0 85.5 57.8
Fri, Feb 16, 2018 08:00 1.2 0.0 87.0 5.2
Fri, Feb 16, 2018 07:00 1.8 0.0 88.3 0.0
Fri, Feb 16, 2018 06:00 2.4 0.0 93.3 0.0
Fri, Feb 16, 2018 05:00 2.1 0.0 95.5 0.0


asterix Register now to access more data! asterix